• Join FlightAware (Why Join?)
  • Login
  • US Flag 
06:42AM EDT


 

Airport Tracker/Info


-or-


 

Live Flight TrackerFlight Track Log ✈ EGF2746 ✈ 05-May-2013 ✈ KDFW - KCID

Flight Track Log - Related Links

Times and Time Zones

All times are in EDT time to prevent confusion due to time zone crossing. See the EGF2746 flight status page for this flight to view local times or setup timezone preferences in your user account.

Time Position Orientation Groundspeed Altitude Reporting Facility
EDT Latitude Longitude Course Direction KTS MPH feet Rate Location/Type
10:43AM 32.9167 -97.0500 328° Northwest 141 162 1,500  Level Dallas / Fort Worth TRACON
10:44AM 32.9500 -97.0500 360° North 194 223 3,500 2,580 Climbing Dallas / Fort Worth TRACON
10:45AM 33.0000 -97.0500 360° North 191 220 6,200 2,400 Climbing Dallas / Fort Worth TRACON
10:46AM 32.7968 -96.8107 10° North  Level FlightAware Approximate
10:46AM 33.0667 -97.0500 360° North 241 277 8,400  Level Dallas / Fort Worth TRACON
10:47AM 32.9004 -96.8000 North  Level FlightAware Approximate
10:47AM 33.1333 -97.0667 348° North 247 284 10,800  Level Dallas / Fort Worth TRACON
10:48AM 33.0014 -96.8136 328° Northwest  Level FlightAware Approximate
10:48AM 33.1647 -97.0686 357° North 258 297 11,400  Level Fort Worth Center
10:49AM 33.2525 -97.0806 354° North 272 313 12,500 1,020 Climbing Fort Worth Center
10:50AM 33.3444 -97.0950 353° North 311 358 13,500 900 Climbing Fort Worth Center
10:51AM 33.4300 -97.1072 353° North 339 390 14,400 960 Climbing Fort Worth Center
10:52AM 33.5322 -97.0672 18° North 353 406 15,500 960 Climbing Fort Worth Center
10:53AM 33.6156 -97.0194 26° Northeast 353 406 16,400 900 Climbing Fort Worth Center
10:54AM 33.7156 -96.9589 27° Northeast 364 419 17,400 900 Climbing Fort Worth Center
10:55AM 33.8031 -96.9111 24° Northeast 369 425 18,200 900 Climbing Fort Worth Center
10:56AM 33.9069 -96.8503 26° Northeast 369 425 19,200 960 Climbing Fort Worth Center
10:57AM 34.0028 -96.7947 26° Northeast 374 430 20,200 1,080 Climbing Fort Worth Center
10:58AM 34.1028 -96.7389 25° Northeast 380 437 21,400 1,680 Climbing Fort Worth Center
10:59AM 34.1983 -96.6853 25° Northeast 380 437 23,600 1,620 Climbing Fort Worth Center
11:00AM 34.2897 -96.6292 27° Northeast 380 437 24,700 1,020 Climbing Fort Worth Center
11:01AM 34.3875 -96.5756 24° Northeast 380 437 25,700 960 Climbing Fort Worth Center
11:02AM 34.4831 -96.5192 26° Northeast 380 437 26,700 900 Climbing Fort Worth Center
11:03AM 34.5850 -96.4600 26° Northeast 380 437 27,600 900 Climbing Fort Worth Center
11:04AM 34.6825 -96.4033 26° Northeast 380 437 28,600 960 Climbing Fort Worth Center
11:05AM 34.7781 -96.3442 27° Northeast 380 437 29,600 960 Climbing Fort Worth Center
11:06AM 34.8756 -96.2872 26° Northeast 380 437 30,600 900 Climbing Fort Worth Center
11:07AM 34.9731 -96.2328 25° Northeast 380 437 31,500 900 Climbing Fort Worth Center
11:08AM 35.0728 -96.1731 26° Northeast 380 437 32,500 960 Climbing Fort Worth Center
11:09AM 35.1722 -96.1131 26° Northeast 386 444 33,500 900 Climbing Fort Worth Center
11:10AM 35.2717 -96.0556 25° Northeast 386 444 34,400 900 Climbing Fort Worth Center
11:11AM 35.3692 -95.9956 27° Northeast 386 444 35,400 960 Climbing Fort Worth Center
11:12AM 35.4664 -95.9378 26° Northeast 381 438 36,400 780 Climbing Fort Worth Center
11:13AM 35.5636 -95.8800 26° Northeast 381 438 37,000 240 Climbing Fort Worth Center
11:14AM 35.6747 -95.8144 26° Northeast 399 459 37,000  Level Kansas City Center
11:15AM 35.7761 -95.7528 26° Northeast 405 466 37,000  Level Kansas City Center
11:16AM 35.8981 -95.6797 26° Northeast 406 467 37,000  Level Kansas City Center
11:17AM 35.9975 -95.6192 26° Northeast 401 461 37,000  Level Kansas City Center
11:18AM 36.1031 -95.5553 26° Northeast 396 456 37,000  Level Kansas City Center
11:19AM 36.2006 -95.4964 26° Northeast 392 451 37,000  Level Kansas City Center
11:20AM 36.2975 -95.4375 26° Northeast 389 448 37,000  Level Kansas City Center
11:21AM 36.3939 -95.3775 27° Northeast 389 448 37,000  Level Kansas City Center
11:22AM 36.4906 -95.3164 27° Northeast 389 448 37,000  Level Kansas City Center
11:23AM 36.5900 -95.2583 25° Northeast 393 452 37,000  Level Kansas City Center
11:24AM 36.6983 -95.1919 26° Northeast 400 460 37,000  Level Kansas City Center
11:25AM 36.7992 -95.1292 26° Northeast 403 464 37,000  Level Kansas City Center
11:26AM 36.8989 -95.0681 26° Northeast 400 460 37,000  Level Kansas City Center
11:27AM 37.0147 -94.9969 26° Northeast 390 449 37,000  Level Kansas City Center
11:28AM 37.1100 -94.9358 27° Northeast 385 443 37,000  Level Kansas City Center
11:29AM 37.2056 -94.8758 27° Northeast 383 441 37,000  Level Kansas City Center
11:30AM 37.3019 -94.8172 26° Northeast 384 442 37,000  Level Kansas City Center
11:31AM 37.4006 -94.7528 27° Northeast 395 455 37,000  Level Kansas City Center
11:32AM 37.5025 -94.6906 26° Northeast 404 465 37,000  Level Kansas City Center
11:33AM 37.6042 -94.6264 27° Northeast 406 467 37,000  Level Kansas City Center
11:34AM 37.7164 -94.5547 27° Northeast 405 466 37,000 -540 Level Kansas City Center
11:35AM 37.8289 -94.4819 27° Northeast 406 467 36,000 -1,500 Descending Kansas City Center
11:36AM 37.9228 -94.4219 27° Northeast 391 450 34,000 -1,500 Descending Kansas City Center
11:38AM 38.0256 -94.3556 27° Northeast 382 440 33,000 -540 Descending Kansas City Center
11:39AM 38.1197 -94.2958 27° Northeast 389 448 33,000  Level Kansas City Center
11:40AM 38.2169 -94.2328 27° Northeast 401 461 33,000  Level Kansas City Center
11:41AM 38.3283 -94.1592 27° Northeast 405 466 33,000  Level Kansas City Center
11:42AM 38.4236 -94.0975 27° Northeast 404 465 33,000  Level Kansas City Center
11:43AM 38.5297 -94.0286 27° Northeast 389 448 33,000  Level Kansas City Center
11:44AM 38.6214 -93.9686 27° Northeast 386 444 33,000  Level Kansas City Center
11:45AM 38.7272 -93.8989 27° Northeast 384 442 33,000  Level Kansas City Center
11:46AM 38.8194 -93.8394 27° Northeast 386 444 33,000  Level Kansas City Center
11:47AM 38.9272 -93.7689 27° Northeast 389 448 33,000  Level Kansas City Center
11:48AM 39.0172 -93.7083 28° Northeast 384 442 33,000  Level Kansas City Center
11:49AM 39.1256 -93.6356 28° Northeast 391 450 33,000  Level Kansas City Center
11:50AM 39.2181 -93.5744 27° Northeast 391 450 33,000  Level Kansas City Center
11:51AM 39.3161 -93.5111 27° Northeast 397 457 33,000  Level Kansas City Center
11:52AM 39.4119 -93.4461 28° Northeast 394 453 33,000  Level Kansas City Center
11:53AM 39.5275 -93.3667 28° Northeast 394 453 33,000  Level Kansas City Center
11:54AM 39.6250 -93.3011 27° Northeast 394 453 33,000  Level Kansas City Center
11:55AM 39.7231 -93.2364 27° Northeast 396 456 33,000 -360 Level Kansas City Center
11:56AM 39.8194 -93.1683 28° Northeast 398 458 32,300 -1,080 Descending Kansas City Center
11:57AM 39.9189 -93.1008 27° Northeast 403 464 30,800 -1,440 Descending Kansas City Center
11:58AM 40.0172 -93.0331 28° Northeast 403 464 29,400 -900 Descending Kansas City Center
11:59AM 40.1272 -92.9581 28° Northeast 403 464 29,000 -240 Descending Kansas City Center
12:00PM 40.2414 -92.8789 28° Northeast 414 476 29,000  Level Kansas City Center
12:01PM 40.3417 -92.8111 27° Northeast 421 484 29,000 -840 Level Kansas City Center
12:02PM 40.4592 -92.7281 28° Northeast 427 491 27,400 -1,740 Descending Kansas City Center
12:03PM 40.5617 -92.6569 28° Northeast 435 501 25,500 -1,800 Descending Kansas City Center
12:04PM 40.6258 -92.6114 28° Northeast 440 506 24,400 -900 Descending Chicago Center
12:05PM 40.7325 -92.5367 28° Northeast 437 503 24,000 -1,140 Descending Chicago Center
12:06PM 40.8617 -92.4456 28° Northeast 439 505 22,100 -2,220 Descending Chicago Center
12:07PM 40.9631 -92.3750 28° Northeast 418 481 19,500 -2,340 Descending Chicago Center
12:08PM 41.0561 -92.3089 28° Northeast 386 444 17,300 -2,220 Descending Chicago Center
12:09PM 41.1464 -92.2444 28° Northeast 371 427 15,000 -2,340 Descending Chicago Center
12:10PM 41.2431 -92.1747 28° Northeast 364 419 12,500 -2,040 Descending Chicago Center
12:11PM 41.3264 -92.1147 28° Northeast 344 396 10,900 -1,320 Descending Chicago Center
12:12PM 41.3944 -92.0664 28° Northeast 281 323 9,900 -1,200 Descending Chicago Center
12:13PM 41.4564 -92.0211 29° Northeast 257 296 8,500 -1,500 Descending Chicago Center
12:14PM 41.5192 -91.9489 41° Northeast 251 289 6,800 -1,500 Descending Chicago Center
12:15PM 41.5689 -91.8911 41° Northeast 242 278 5,400 -1,380 Descending Chicago Center
12:16PM 41.6169 -91.8336 42° Northeast 237 273 4,000 -1,200 Descending Chicago Center
12:17PM 41.6664 -91.7761 41° Northeast 237 273 3,000 -540 Descending Chicago Center
12:18PM 41.7167 -91.7211 39° Northeast 237 273 3,000  Level Chicago Center
12:19PM 41.7789 -91.6536 39° Northeast 240 276 3,000 -60 Level Chicago Center
12:20PM 41.8303 -91.5994 38° Northeast 239 275 2,900 -300 Descending Chicago Center
12:21PM 41.8722 -91.6261 335° Northwest 190 219 2,400 -660 Descending Chicago Center
12:23PM 41.8911 -91.6636 304° West 171 197 1,600 -780 Descending Chicago Center
12:25PM 41.8833 -91.7000 270° West  Level FlightAware Approximate